Sugar Run, Pennsylvania
Current Conditions -  °F | °C
As of 2:05 AM on Friday 19 Dec 2014 (Local Time) from KAVP Reporting Station
Overcast Overcast  
Wind Chill: 27°   Ceiling: 3100
Heat Index: 34°   Visibility: 10mi
Dew Point: 23°   Wind: 9mph
Humidity: 64%   Direction: 290°WNW
Pressure: 29.98"   Gusts: NA
Location:  41.64°N, 76.24°W
Report Text: KAVP 190705Z AUTO 29008KT 10SM OVC031 01/M05 A2998 RMK AO2 T00111050
Loading
Personal Weather Stations






























Interactive Weather Map New forecast layout! Learn more

10-Day Weather Forecast

Advertisements
Track Severe Weather on mobile